Onchiota, New York
Current Conditions -  °F | °C
As of 4:51 PM on Friday 19 Dec 2014 (Local Time) from KSLK Reporting Station
Overcast Overcast  
Wind Chill: 18°   Ceiling: 800
Heat Index: 18°   Visibility: 10mi
Dew Point: 14°   Wind: 3mph
Humidity: 84%   Direction: 310°NW
Pressure: 30.06"   Gusts: NA
Location:  44.5284°N, 74.0904°W
Report Text: KSLK 192151Z AUTO 31003KT 10SM OVC008 M08/M10 A3006 RMK AO2 SLP206 T10781100 $
Loading
Personal Weather Stations






























Interactive Weather Map New forecast layout! Learn more

10-Day Weather Forecast

Advertisements
Track Severe Weather on mobile